Terminal Aerodrome Forecast
Issued by NWS Cleveland, OH

Home | Current Version | Previous Version | Graphics & Text | Print | Product List | Glossary On
Versions: 1 2 3 4 5 6 7 8 9 10 11 12 13 14 15 16 17 18 19
998
FTUS41 KCLE 012335
TAFERI
TAF
KERI 012335Z 0200/0224 24015G25KT 6SM -SHSNRA SCT015 OVC025
      TEMPO 0200/0204 BKN015
     FM020500 25012G18KT 6SM -SHSNRA OVC015=

USA.gov is the U.S. government's official web portal to all federal, state and local government web resources and services.